createdAt,value
2023-05-19T00:00:16.005Z,0.00
2023-05-19T00:01:16.279Z,0.00
2023-05-19T00:02:16.617Z,0.00
2023-05-19T00:03:16.587Z,0.00
2023-05-19T00:04:16.248Z,0.00
2023-05-19T00:05:17.558Z,0.00
2023-05-19T00:06:16.170Z,0.00
2023-05-19T00:07:16.388Z,0.00
2023-05-19T00:08:15.998Z,0.00
2023-05-19T00:09:16.035Z,0.00
2023-05-19T00:10:15.878Z,0.00
2023-05-19T00:11:16.281Z,0.00
2023-05-19T00:12:15.955Z,0.00
2023-05-19T00:16:00.558Z,0.00
2023-05-19T00:17:00.150Z,0.00
2023-05-19T00:17:59.881Z,0.00
2023-05-19T00:18:59.821Z,0.00
2023-05-19T00:19:59.843Z,0.00
2023-05-19T00:21:00.102Z,0.00
2023-05-19T00:21:59.931Z,0.00
2023-05-19T00:23:00.169Z,0.00
2023-05-19T00:23:59.868Z,0.00
2023-05-19T00:25:00.048Z,0.00
2023-05-19T00:26:00.046Z,0.00
2023-05-19T00:26:59.905Z,0.00
2023-05-19T00:27:59.731Z,0.00
2023-05-19T00:28:59.685Z,0.00
2023-05-19T00:29:59.669Z,0.00
2023-05-19T00:30:59.826Z,0.00
2023-05-19T00:31:59.743Z,0.00
2023-05-19T00:32:59.701Z,0.00
2023-05-19T00:33:59.579Z,0.00
2023-05-19T00:34:59.699Z,0.00
2023-05-19T00:35:59.374Z,0.00
2023-05-19T00:36:59.380Z,0.00
2023-05-19T00:37:59.537Z,0.00
2023-05-19T00:38:59.612Z,0.00
2023-05-19T00:39:59.511Z,0.00
2023-05-19T00:40:59.285Z,0.00
2023-05-19T00:41:59.660Z,0.00
2023-05-19T00:42:59.377Z,0.00
2023-05-19T00:43:59.461Z,0.00
2023-05-19T01:14:32.479Z,0.00
2023-05-19T01:15:32.194Z,0.00
2023-05-19T01:16:32.026Z,0.00
2023-05-19T01:17:31.875Z,0.00
2023-05-19T01:18:32.086Z,0.00
2023-05-19T01:19:46.305Z,0.00
2023-05-19T01:20:31.970Z,0.00
2023-05-19T01:21:31.976Z,0.00
2023-05-19T01:22:32.026Z,0.00
2023-05-19T01:23:31.994Z,0.00
2023-05-19T01:24:31.888Z,0.00
2023-05-19T01:25:31.895Z,0.00
2023-05-19T01:26:32.039Z,0.00
2023-05-19T01:27:31.780Z,0.00
2023-05-19T01:28:31.766Z,0.00
2023-05-19T01:29:31.831Z,0.00
2023-05-19T01:30:32.154Z,0.00
2023-05-19T01:31:31.807Z,0.00
2023-05-19T01:32:31.866Z,0.00
2023-05-19T01:33:31.981Z,0.00
2023-05-19T01:37:52.039Z,0.00
2023-05-19T01:38:25.175Z,0.00
2023-05-19T01:39:24.945Z,0.00
2023-05-19T01:40:25.010Z,0.00
2023-05-19T01:41:24.847Z,0.00
2023-05-19T01:42:24.982Z,0.00
2023-05-19T01:43:25.329Z,0.00
2023-05-19T01:44:24.869Z,0.00
2023-05-19T01:45:25.035Z,0.00
2023-05-19T01:46:24.814Z,0.00
2023-05-19T01:47:24.662Z,0.00
2023-05-19T01:48:24.814Z,0.00
2023-05-19T01:49:25.009Z,0.00
2023-05-19T01:50:24.783Z,0.00
2023-05-19T01:51:25.219Z,0.00
2023-05-19T01:52:24.940Z,0.00
2023-05-19T01:53:24.727Z,0.00
2023-05-19T01:54:24.643Z,0.00
2023-05-19T01:55:24.578Z,0.00
2023-05-19T01:56:24.800Z,0.00
2023-05-19T01:57:25.034Z,0.00
2023-05-19T01:58:24.820Z,0.00
2023-05-19T01:59:24.708Z,0.00
2023-05-19T02:00:24.613Z,0.00
2023-05-19T02:01:24.901Z,0.00
2023-05-19T02:02:24.757Z,0.00
2023-05-19T02:03:24.665Z,0.00
2023-05-19T02:04:25.005Z,0.00
2023-05-19T02:05:24.788Z,0.00
2023-05-19T02:06:24.482Z,0.00
2023-05-19T02:07:24.293Z,0.00
2023-05-19T02:08:24.261Z,0.00
2023-05-19T02:09:24.332Z,0.00
2023-05-19T02:10:24.355Z,0.00
2023-05-19T02:11:24.291Z,0.00
2023-05-19T02:12:24.267Z,0.00
2023-05-19T02:13:24.299Z,0.00
2023-05-19T02:14:24.216Z,0.00
2023-05-19T02:15:24.290Z,0.00
2023-05-19T02:16:24.472Z,0.00
2023-05-19T02:17:24.250Z,0.00
2023-05-19T02:18:24.230Z,0.00
2023-05-19T02:19:24.326Z,0.00
2023-05-19T02:20:24.213Z,0.00
2023-05-19T02:21:24.155Z,0.00
2023-05-19T02:22:24.263Z,0.00
2023-05-19T02:23:24.197Z,0.00
2023-05-19T02:24:24.160Z,0.00
2023-05-19T02:25:24.392Z,0.00
2023-05-19T02:29:08.124Z,0.00
2023-05-19T02:30:07.987Z,0.00
2023-05-19T02:31:07.983Z,0.00
2023-05-19T02:32:07.930Z,0.00
2023-05-19T02:33:08.008Z,0.00
2023-05-19T02:34:07.829Z,0.00
2023-05-19T02:35:08.248Z,0.00
2023-05-19T02:36:07.840Z,0.00
2023-05-19T02:37:07.885Z,0.00
2023-05-19T02:38:07.775Z,0.00
2023-05-19T02:39:07.807Z,0.00
2023-05-19T02:40:07.815Z,0.00
2023-05-19T02:41:07.827Z,0.00
2023-05-19T02:42:07.766Z,0.00
2023-05-19T02:43:07.757Z,0.00
2023-05-19T02:44:07.786Z,0.00
2023-05-19T02:45:08.033Z,0.00
2023-05-19T02:46:07.758Z,0.00
2023-05-19T02:47:07.832Z,0.00
2023-05-19T02:48:07.766Z,0.00
2023-05-19T02:49:07.723Z,0.00
2023-05-19T02:50:07.854Z,0.00
2023-05-19T02:51:07.657Z,0.00
2023-05-19T02:52:07.805Z,0.00
2023-05-19T02:53:07.783Z,0.00
2023-05-19T02:54:07.628Z,0.00
2023-05-19T02:55:07.646Z,0.00
2023-05-19T02:56:07.702Z,0.00
2023-05-19T02:57:07.626Z,0.00
2023-05-19T02:58:07.630Z,0.00
2023-05-19T02:59:07.732Z,0.00
2023-05-19T03:00:07.562Z,0.00
2023-05-19T03:01:07.534Z,0.00
2023-05-19T03:02:07.659Z,0.00
2023-05-19T03:03:07.597Z,0.00
2023-05-19T03:04:07.681Z,0.00
2023-05-19T03:05:07.498Z,0.00
2023-05-19T03:06:07.493Z,0.00
2023-05-19T03:07:07.545Z,0.00
2023-05-19T03:08:07.505Z,0.00
2023-05-19T03:09:07.507Z,0.00
2023-05-19T03:10:07.440Z,0.00
2023-05-19T03:22:56.125Z,5.62
2023-05-19T03:23:29.554Z,5.62
2023-05-19T03:24:29.123Z,5.62
2023-05-19T03:25:29.190Z,5.62
2023-05-19T03:41:44.612Z,28.12
2023-05-19T03:42:44.202Z,28.12
2023-05-19T03:43:44.168Z,33.75
2023-05-19T03:44:44.092Z,33.75
2023-05-19T03:45:44.116Z,33.75
2023-05-19T03:46:44.105Z,33.75
2023-05-19T03:47:44.085Z,39.38
2023-05-19T03:48:44.043Z,39.38
2023-05-19T03:49:44.042Z,39.38
2023-05-19T03:50:44.001Z,45.00
2023-05-19T03:51:44.225Z,45.00
2023-05-19T03:52:44.036Z,45.00
2023-05-19T03:53:44.149Z,50.62
2023-05-19T03:54:44.230Z,50.62
2023-05-19T03:55:43.938Z,50.62
2023-05-19T03:56:44.088Z,56.25
2023-05-19T03:57:43.913Z,56.25
2023-05-19T03:58:43.885Z,61.88
2023-05-19T03:59:43.893Z,61.88
2023-05-19T04:00:44.128Z,61.88
2023-05-19T04:01:43.899Z,67.50
2023-05-19T04:02:44.129Z,67.50
2023-05-19T04:03:43.960Z,73.12
2023-05-19T04:04:43.963Z,73.12
2023-05-19T04:05:43.837Z,78.75
2023-05-19T04:06:43.822Z,78.75
2023-05-19T04:07:43.801Z,84.38
2023-05-19T04:08:43.799Z,84.38
2023-05-19T04:09:43.787Z,90.00
2023-05-19T04:10:43.816Z,90.00
2023-05-19T04:11:43.763Z,90.00
2023-05-19T04:12:43.838Z,95.62
2023-05-19T04:13:45.074Z,101.25
2023-05-19T04:14:43.800Z,101.25
2023-05-19T04:15:43.857Z,106.88
2023-05-19T04:16:43.673Z,112.50
2023-05-19T04:17:43.672Z,112.50
2023-05-19T04:18:43.729Z,118.12
2023-05-19T04:19:43.753Z,123.75
2023-05-19T04:20:43.673Z,123.75
2023-05-19T04:21:43.637Z,123.75
2023-05-19T04:22:43.698Z,129.38
2023-05-19T04:23:43.629Z,135.00
2023-05-19T04:24:43.732Z,135.00
2023-05-19T04:25:43.628Z,140.62
2023-05-19T04:26:43.618Z,140.62
2023-05-19T04:27:43.591Z,140.62
2023-05-19T04:28:43.552Z,140.62
2023-05-19T04:29:43.572Z,140.62
2023-05-19T04:30:43.545Z,146.25
2023-05-19T04:31:43.645Z,146.25
2023-05-19T04:32:53.279Z,151.88
2023-05-19T04:33:43.460Z,151.88
2023-05-19T04:34:44.202Z,157.50
2023-05-19T04:35:43.434Z,157.50
2023-05-19T04:36:43.436Z,157.50
2023-05-19T04:37:43.457Z,163.12
2023-05-19T04:38:43.411Z,163.12
2023-05-19T04:39:43.417Z,163.12
2023-05-19T04:40:43.395Z,163.12
2023-05-19T04:41:43.375Z,157.50
2023-05-19T04:42:43.378Z,157.50
2023-05-19T04:43:43.349Z,163.12
2023-05-19T04:44:43.365Z,168.75
2023-05-19T04:45:43.336Z,168.75
2023-05-19T04:46:43.377Z,174.38
2023-05-19T04:47:43.364Z,185.62
2023-05-19T04:48:43.314Z,191.25
2023-05-19T04:49:43.319Z,196.88
2023-05-19T04:50:43.289Z,196.88
2023-05-19T04:51:43.274Z,202.50
2023-05-19T04:52:43.283Z,202.50
2023-05-19T04:53:43.248Z,208.12
2023-05-19T04:54:43.238Z,208.12
2023-05-19T04:55:43.343Z,213.75
2023-05-19T04:56:43.240Z,213.75
2023-05-19T04:57:43.232Z,219.38
2023-05-19T04:58:43.208Z,219.38
2023-05-19T04:59:43.192Z,219.38
2023-05-19T05:00:43.177Z,219.38
2023-05-19T05:01:44.166Z,225.00
2023-05-19T05:02:43.272Z,225.00
2023-05-19T05:03:43.210Z,230.62
2023-05-19T05:04:43.153Z,230.62
2023-05-19T05:05:43.141Z,236.25
2023-05-19T05:06:43.124Z,236.25
2023-05-19T05:07:43.097Z,236.25
2023-05-19T05:08:43.066Z,241.88
2023-05-19T05:09:43.088Z,241.88
2023-05-19T05:10:43.068Z,241.88
2023-05-19T05:11:43.056Z,247.50
2023-05-19T05:12:43.032Z,247.50
2023-05-19T05:13:43.041Z,247.50
2023-05-19T05:14:43.066Z,253.12
2023-05-19T05:15:43.027Z,253.12
2023-05-19T05:16:43.090Z,253.12
2023-05-19T05:17:43.013Z,258.75
2023-05-19T05:18:44.927Z,258.75
2023-05-19T05:19:42.954Z,258.75
2023-05-19T05:20:42.954Z,264.38
2023-05-19T05:21:42.955Z,264.38
2023-05-19T05:22:42.982Z,270.00
2023-05-19T05:23:42.915Z,270.00
2023-05-19T05:24:42.911Z,270.00
2023-05-19T05:25:42.895Z,275.62
2023-05-19T05:26:43.016Z,275.62
2023-05-19T05:27:42.873Z,281.25
2023-05-19T05:28:42.865Z,281.25
2023-05-19T05:29:42.848Z,281.25
2023-05-19T05:30:42.849Z,286.88
2023-05-19T05:31:42.828Z,286.88
2023-05-19T05:32:42.963Z,292.50
2023-05-19T05:33:42.894Z,292.50
2023-05-19T05:34:42.817Z,292.50
2023-05-19T05:35:42.789Z,292.50
2023-05-19T05:36:42.798Z,292.50
2023-05-19T05:37:42.752Z,298.12
2023-05-19T05:38:42.801Z,298.12
2023-05-19T05:39:42.744Z,303.75
2023-05-19T05:40:42.768Z,303.75
2023-05-19T05:41:42.728Z,303.75
2023-05-19T05:42:42.717Z,309.38
2023-05-19T05:43:42.715Z,309.38
2023-05-19T05:44:42.711Z,309.38
2023-05-19T05:45:42.731Z,315.00
2023-05-19T05:46:42.707Z,315.00
2023-05-19T05:47:42.699Z,315.00
2023-05-19T05:48:42.683Z,315.00
2023-05-19T05:49:42.658Z,315.00
2023-05-19T05:50:42.653Z,320.62
2023-05-19T05:51:46.399Z,320.62
2023-05-19T05:52:43.629Z,320.62
2023-05-19T05:53:42.580Z,326.25
2023-05-19T05:54:42.614Z,326.25
2023-05-19T05:55:42.638Z,326.25
2023-05-19T05:56:42.588Z,331.88
2023-05-19T05:57:42.582Z,331.88
2023-05-19T05:58:42.564Z,331.88
2023-05-19T05:59:42.530Z,337.50
2023-05-19T06:00:42.534Z,337.50
2023-05-19T06:01:42.547Z,337.50
2023-05-19T06:02:42.644Z,337.50
2023-05-19T06:03:42.530Z,343.12
2023-05-19T06:04:42.484Z,343.12
2023-05-19T06:05:42.506Z,343.12
2023-05-19T06:06:42.474Z,348.75
2023-05-19T06:07:42.448Z,348.75
2023-05-19T06:08:42.472Z,348.75
2023-05-19T06:09:42.435Z,348.75
2023-05-19T06:10:43.219Z,354.38
2023-05-19T06:11:42.395Z,354.38
2023-05-19T06:12:42.428Z,354.38
2023-05-19T06:13:42.386Z,354.38
2023-05-19T06:14:42.417Z,354.38
2023-05-19T06:15:42.400Z,354.38
2023-05-19T06:16:42.351Z,354.38
2023-05-19T06:17:42.358Z,354.38
2023-05-19T06:18:42.379Z,360.00
2023-05-19T06:19:42.306Z,360.00
2023-05-19T06:20:42.322Z,360.00
2023-05-19T06:21:42.301Z,360.00
2023-05-19T06:22:42.297Z,365.62
2023-05-19T06:23:42.273Z,365.62
2023-05-19T06:24:42.259Z,365.62
2023-05-19T06:25:42.254Z,371.25
2023-05-19T06:26:42.271Z,371.25
2023-05-19T06:27:42.248Z,371.25
2023-05-19T06:28:42.242Z,371.25
2023-05-19T06:29:42.219Z,376.88
2023-05-19T06:30:42.205Z,376.88
2023-05-19T06:31:42.256Z,376.88
2023-05-19T06:32:42.239Z,376.88
2023-05-19T06:33:42.168Z,382.50
2023-05-19T06:34:42.169Z,382.50
2023-05-19T06:35:42.145Z,382.50
2023-05-19T06:36:42.135Z,382.50
2023-05-19T06:37:42.133Z,388.12
2023-05-19T06:38:42.125Z,388.12
2023-05-19T06:39:42.090Z,388.12
2023-05-19T06:40:42.091Z,388.12
2023-05-19T06:41:42.069Z,388.12
2023-05-19T06:42:42.098Z,388.12
2023-05-19T06:43:42.074Z,393.75
2023-05-19T06:44:42.046Z,393.75
2023-05-19T06:45:42.052Z,393.75
2023-05-19T06:46:42.121Z,393.75
2023-05-19T06:47:42.057Z,393.75
2023-05-19T06:48:42.053Z,399.38
2023-05-19T06:49:41.986Z,399.38
2023-05-19T06:50:41.990Z,399.38
2023-05-19T06:51:41.968Z,399.38
2023-05-19T06:52:41.964Z,399.38
2023-05-19T06:53:41.946Z,399.38
2023-05-19T06:54:41.946Z,399.38
2023-05-19T06:55:54.408Z,399.38
2023-05-19T06:56:42.916Z,399.38
2023-05-19T06:57:41.908Z,399.38
2023-05-19T06:58:41.917Z,405.00
2023-05-19T06:59:41.933Z,405.00
2023-05-19T07:00:41.894Z,405.00
2023-05-19T07:01:41.885Z,405.00
2023-05-19T07:02:42.008Z,410.62
2023-05-19T07:03:41.918Z,410.62
2023-05-19T07:04:41.836Z,410.62
2023-05-19T07:05:41.823Z,410.62
2023-05-19T07:06:41.832Z,410.62
2023-05-19T07:07:41.813Z,410.62
2023-05-19T07:08:41.820Z,416.25
2023-05-19T07:09:41.776Z,416.25
2023-05-19T07:10:41.763Z,416.25
2023-05-19T07:11:41.755Z,416.25
2023-05-19T07:12:41.769Z,421.88
2023-05-19T07:13:41.717Z,421.88
2023-05-19T07:14:41.728Z,421.88
2023-05-19T07:15:41.696Z,421.88
2023-05-19T07:16:41.744Z,427.50
2023-05-19T07:17:41.766Z,427.50
2023-05-19T07:18:41.760Z,427.50
2023-05-19T07:19:41.675Z,427.50
2023-05-19T07:20:41.666Z,427.50
2023-05-19T07:21:41.637Z,427.50
2023-05-19T07:22:41.634Z,427.50
2023-05-19T07:23:41.623Z,427.50
2023-05-19T07:24:41.629Z,427.50
2023-05-19T07:25:41.609Z,433.12
2023-05-19T07:26:41.586Z,433.12
2023-05-19T07:27:41.586Z,433.12
2023-05-19T07:28:41.878Z,433.12
2023-05-19T07:29:41.549Z,433.12
2023-05-19T07:30:41.620Z,433.12
2023-05-19T07:31:41.598Z,433.12
2023-05-19T07:32:41.633Z,433.12
2023-05-19T07:33:41.506Z,438.75
2023-05-19T07:34:41.565Z,438.75
2023-05-19T07:35:41.502Z,438.75
2023-05-19T07:36:41.489Z,438.75
2023-05-19T07:37:41.463Z,438.75
2023-05-19T07:38:41.506Z,438.75
2023-05-19T07:39:41.444Z,444.38
2023-05-19T07:40:41.436Z,444.38
2023-05-19T07:41:41.433Z,444.38
2023-05-19T07:42:41.415Z,444.38
2023-05-19T07:43:41.389Z,444.38
2023-05-19T07:44:41.380Z,444.38
2023-05-19T07:45:41.376Z,444.38
2023-05-19T07:46:41.440Z,444.38
2023-05-19T07:47:41.386Z,444.38
2023-05-19T07:48:41.353Z,444.38
2023-05-19T07:49:41.329Z,450.00
2023-05-19T07:50:41.315Z,450.00
2023-05-19T07:51:41.289Z,444.38
2023-05-19T07:52:41.303Z,444.38
2023-05-19T07:53:41.297Z,444.38
2023-05-19T07:54:41.271Z,450.00
2023-05-19T07:55:41.283Z,450.00
2023-05-19T07:56:41.248Z,450.00
2023-05-19T07:57:41.243Z,450.00
2023-05-19T07:58:41.227Z,455.62
2023-05-19T07:59:41.260Z,455.62
2023-05-19T08:00:41.212Z,455.62
2023-05-19T08:01:41.296Z,455.62
2023-05-19T08:02:41.236Z,455.62
2023-05-19T08:03:41.240Z,461.25
2023-05-19T08:04:41.189Z,461.25
2023-05-19T08:05:41.162Z,461.25
2023-05-19T08:06:41.148Z,461.25
2023-05-19T08:07:41.150Z,461.25
2023-05-19T08:08:41.110Z,461.25
2023-05-19T08:09:41.122Z,466.88
2023-05-19T08:10:41.092Z,466.88
2023-05-19T08:11:41.114Z,466.88
2023-05-19T08:12:41.105Z,466.88
2023-05-19T08:13:41.072Z,466.88
2023-05-19T08:14:41.081Z,472.50
2023-05-19T08:15:41.142Z,472.50
2023-05-19T08:16:41.047Z,472.50
2023-05-19T08:17:41.054Z,472.50
2023-05-19T08:18:41.051Z,472.50
2023-05-19T08:19:41.023Z,478.12
2023-05-19T08:20:41.007Z,478.12
2023-05-19T08:21:41.004Z,478.12
2023-05-19T08:22:40.972Z,478.12
2023-05-19T08:23:40.979Z,483.75
2023-05-19T08:24:40.942Z,483.75
2023-05-19T08:25:40.954Z,483.75
2023-05-19T08:26:40.911Z,483.75
2023-05-19T08:27:40.917Z,483.75
2023-05-19T08:28:40.878Z,489.38
2023-05-19T08:29:40.900Z,489.38
2023-05-19T08:30:40.870Z,489.38
2023-05-19T08:31:41.006Z,489.38
2023-05-19T08:32:40.947Z,495.00
2023-05-19T08:33:40.856Z,495.00
2023-05-19T08:34:40.835Z,495.00
2023-05-19T08:35:40.836Z,495.00
2023-05-19T08:36:40.823Z,495.00
2023-05-19T08:37:40.818Z,495.00
2023-05-19T08:38:41.161Z,500.62
2023-05-19T08:39:40.805Z,500.62
2023-05-19T08:40:40.769Z,500.62
2023-05-19T08:41:40.778Z,500.62
2023-05-19T08:42:40.754Z,500.62
2023-05-19T08:43:40.751Z,500.62
2023-05-19T08:44:40.720Z,500.62
2023-05-19T08:45:40.724Z,500.62
2023-05-19T08:46:40.769Z,500.62
2023-05-19T08:47:40.732Z,506.25
2023-05-19T08:48:40.693Z,506.25
2023-05-19T08:49:40.684Z,506.25
2023-05-19T08:50:40.667Z,506.25
2023-05-19T08:51:40.658Z,506.25
2023-05-19T08:52:40.662Z,511.88
2023-05-19T08:53:40.646Z,511.88
2023-05-19T08:54:40.602Z,511.88
2023-05-19T08:55:40.651Z,517.50
2023-05-19T08:56:40.609Z,517.50
2023-05-19T08:57:40.594Z,517.50
2023-05-19T08:58:40.603Z,523.12
2023-05-19T08:59:40.590Z,523.12
2023-05-19T09:00:40.666Z,523.12
2023-05-19T09:01:40.544Z,523.12
2023-05-19T09:02:50.490Z,528.75
2023-05-19T09:03:42.636Z,528.75
2023-05-19T09:04:40.548Z,534.38
2023-05-19T09:05:40.552Z,534.38
2023-05-19T09:06:40.471Z,534.38
2023-05-19T09:07:40.489Z,540.00
2023-05-19T09:08:40.452Z,540.00
2023-05-19T09:09:40.442Z,540.00
2023-05-19T09:10:40.443Z,540.00
2023-05-19T09:11:40.440Z,540.00
2023-05-19T09:12:40.422Z,545.62
2023-05-19T09:13:40.433Z,545.62
2023-05-19T09:14:40.407Z,545.62
2023-05-19T09:15:40.428Z,551.25
2023-05-19T09:16:40.393Z,551.25
2023-05-19T09:17:40.454Z,551.25
2023-05-19T09:18:40.381Z,556.88
2023-05-19T09:19:40.344Z,556.88
2023-05-19T09:20:40.331Z,556.88
2023-05-19T09:21:40.328Z,562.50
2023-05-19T09:22:40.334Z,562.50
2023-05-19T09:23:40.315Z,568.12
2023-05-19T09:24:40.272Z,568.12
2023-05-19T09:25:40.292Z,568.12
2023-05-19T09:26:40.304Z,573.75
2023-05-19T09:27:40.250Z,573.75
2023-05-19T09:28:40.253Z,573.75
2023-05-19T09:29:40.240Z,573.75
2023-05-19T09:30:40.226Z,573.75
2023-05-19T09:31:40.241Z,579.38
2023-05-19T09:32:40.227Z,579.38
2023-05-19T09:33:42.184Z,585.00
2023-05-19T09:34:40.197Z,585.00
2023-05-19T09:35:40.202Z,590.62
2023-05-19T09:36:40.163Z,590.62
2023-05-19T09:37:40.159Z,596.25
2023-05-19T09:38:40.103Z,596.25
2023-05-19T09:39:40.116Z,596.25
2023-05-19T09:40:40.091Z,596.25
2023-05-19T09:41:40.098Z,601.88
2023-05-19T09:42:40.065Z,601.88
2023-05-19T09:43:40.083Z,601.88
2023-05-19T09:44:40.049Z,607.50
2023-05-19T09:45:40.098Z,517.50
2023-05-19T09:46:40.183Z,607.50
2023-05-19T09:47:40.086Z,624.38
2023-05-19T09:48:40.007Z,635.62
2023-05-19T09:49:40.023Z,635.62
2023-05-19T09:50:40.005Z,635.62
2023-05-19T09:51:39.987Z,652.50
2023-05-19T09:52:39.977Z,652.50
2023-05-19T09:53:39.972Z,652.50
2023-05-19T09:54:40.023Z,652.50
2023-05-19T09:55:39.994Z,658.12
2023-05-19T09:56:39.946Z,663.75
2023-05-19T09:57:39.918Z,663.75
2023-05-19T09:58:39.887Z,691.88
2023-05-19T09:59:39.919Z,720.00
2023-05-19T10:00:39.891Z,731.25
2023-05-19T10:01:39.934Z,725.62
2023-05-19T10:02:39.892Z,860.62
2023-05-19T10:03:39.862Z,1012.50
2023-05-19T10:04:39.891Z,1141.88
2023-05-19T10:05:40.010Z,1327.50
2023-05-19T10:06:39.804Z,1563.75
2023-05-19T10:07:39.819Z,1552.50
2023-05-19T10:08:39.801Z,1378.12
2023-05-19T10:09:39.798Z,1310.62
2023-05-19T10:10:39.778Z,1276.88
2023-05-19T10:11:39.786Z,1231.88
2023-05-19T10:12:39.766Z,1198.12
2023-05-19T10:13:39.751Z,1186.88
2023-05-19T10:14:39.743Z,1198.12
2023-05-19T10:15:53.669Z,1147.50
2023-05-19T10:16:40.734Z,1091.25
2023-05-19T10:17:39.737Z,1063.12
2023-05-19T10:18:40.091Z,1051.88
2023-05-19T10:19:39.695Z,1040.62
2023-05-19T10:20:39.672Z,995.62
2023-05-19T10:21:39.671Z,736.88
2023-05-19T10:22:39.658Z,1102.50
2023-05-19T10:23:39.659Z,770.62
2023-05-19T10:24:39.623Z,765.00
2023-05-19T10:25:39.620Z,720.00
2023-05-19T10:26:39.597Z,708.75
2023-05-19T10:27:39.593Z,680.62
2023-05-19T10:28:39.597Z,686.25
2023-05-19T10:29:39.599Z,680.62
2023-05-19T10:30:39.575Z,714.38
2023-05-19T10:31:39.568Z,736.88
2023-05-19T10:32:39.588Z,748.12
2023-05-19T10:33:39.525Z,1085.62
2023-05-19T10:34:39.516Z,1125.00
2023-05-19T10:35:39.522Z,1125.00
2023-05-19T10:36:39.547Z,1113.75
2023-05-19T10:37:39.492Z,1096.88
2023-05-19T10:38:39.474Z,1096.88
2023-05-19T10:39:39.465Z,1085.62
2023-05-19T10:40:39.810Z,1040.62
2023-05-19T10:41:39.446Z,759.38
2023-05-19T10:42:39.463Z,686.25
2023-05-19T10:43:39.414Z,646.88
2023-05-19T10:44:39.419Z,624.38
2023-05-19T10:45:39.422Z,635.62
2023-05-19T10:46:40.436Z,725.62
2023-05-19T10:47:39.395Z,748.12
2023-05-19T10:48:39.370Z,1231.88
2023-05-19T10:49:39.372Z,1265.62
2023-05-19T10:50:39.349Z,1321.88
2023-05-19T10:51:39.340Z,1361.25
2023-05-19T10:52:39.306Z,1299.38
2023-05-19T10:53:39.319Z,1198.12
2023-05-19T10:54:39.299Z,770.62
2023-05-19T10:55:39.313Z,714.38
2023-05-19T10:56:39.312Z,725.62
2023-05-19T10:57:39.433Z,714.38
2023-05-19T10:58:39.287Z,686.25
2023-05-19T10:59:39.267Z,658.12
2023-05-19T11:00:39.257Z,635.62
2023-05-19T11:01:39.305Z,618.75
2023-05-19T11:02:39.295Z,624.38
2023-05-19T11:03:39.299Z,714.38
2023-05-19T11:04:39.191Z,1575.00
2023-05-19T11:05:39.188Z,900.00
2023-05-19T11:06:39.161Z,1350.00
2023-05-19T11:07:39.259Z,1558.12
2023-05-19T11:08:39.157Z,1136.25
2023-05-19T11:09:40.596Z,714.38
2023-05-19T11:10:39.115Z,697.50
2023-05-19T11:11:39.130Z,675.00
2023-05-19T11:12:39.119Z,663.75
2023-05-19T11:13:39.106Z,675.00
2023-05-19T11:14:39.077Z,821.25
2023-05-19T11:15:39.096Z,781.88
2023-05-19T11:16:39.114Z,894.38
2023-05-19T11:17:39.125Z,2047.50
2023-05-19T11:18:39.091Z,2030.62
2023-05-19T11:19:39.029Z,2171.25
2023-05-19T11:20:39.077Z,2165.62
2023-05-19T11:21:39.053Z,1850.62
2023-05-19T11:22:38.994Z,2126.25
2023-05-19T11:23:39.051Z,2086.88
2023-05-19T11:24:38.980Z,2053.12
2023-05-19T11:25:38.977Z,2081.25
2023-05-19T11:26:38.957Z,1929.38
2023-05-19T11:27:38.964Z,1805.62
2023-05-19T11:28:38.923Z,838.12
2023-05-19T11:29:38.938Z,1535.62
2023-05-19T11:30:38.911Z,1940.62
2023-05-19T11:31:38.951Z,2092.50
2023-05-19T11:32:39.071Z,922.50
2023-05-19T11:33:38.884Z,849.38
2023-05-19T11:34:38.882Z,821.25
2023-05-19T11:35:39.145Z,815.62
2023-05-19T11:36:38.830Z,894.38
2023-05-19T11:37:38.846Z,2266.88
2023-05-19T11:38:38.954Z,2385.00
2023-05-19T11:39:38.834Z,2255.62
2023-05-19T11:40:38.820Z,2019.38
2023-05-19T11:41:38.817Z,804.38
2023-05-19T11:42:38.791Z,798.75
2023-05-19T11:43:38.790Z,832.50
2023-05-19T11:44:38.767Z,905.62
2023-05-19T11:45:38.764Z,2379.38
2023-05-19T11:46:38.841Z,1676.25
2023-05-19T11:47:50.683Z,1361.25
2023-05-19T11:48:39.755Z,978.75
2023-05-19T11:49:38.710Z,900.00
2023-05-19T11:50:38.703Z,2435.62
2023-05-19T11:51:38.713Z,2565.00
2023-05-19T11:52:38.680Z,2559.38
2023-05-19T11:53:38.702Z,2137.50
2023-05-19T11:54:39.111Z,2598.75
2023-05-19T11:55:38.674Z,2615.62
2023-05-19T11:56:38.648Z,2632.50
2023-05-19T11:57:38.632Z,2503.12
2023-05-19T11:58:38.595Z,2458.12
2023-05-19T11:59:38.615Z,2278.12
2023-05-19T12:00:38.609Z,2671.88
2023-05-19T12:01:38.595Z,2705.62
2023-05-19T12:02:38.621Z,2632.50
2023-05-19T12:03:38.926Z,2655.00
2023-05-19T12:04:38.566Z,2452.50
2023-05-19T12:05:41.968Z,2368.12
2023-05-19T12:06:38.673Z,2356.88
2023-05-19T12:07:38.529Z,2671.88
2023-05-19T12:08:38.511Z,2610.00
2023-05-19T12:09:38.603Z,1479.38
2023-05-19T12:10:38.483Z,2610.00
2023-05-19T12:11:38.457Z,2576.25
2023-05-19T12:12:38.481Z,2683.12
2023-05-19T12:13:38.462Z,995.62
2023-05-19T12:14:38.453Z,2739.38
2023-05-19T12:15:38.413Z,2790.00
2023-05-19T12:16:38.482Z,2188.12
2023-05-19T12:17:38.423Z,871.88
2023-05-19T12:18:38.461Z,855.00
2023-05-19T12:19:38.395Z,860.62
2023-05-19T12:20:38.400Z,978.75
2023-05-19T12:21:38.359Z,2677.50
2023-05-19T12:22:38.370Z,2643.75
2023-05-19T12:23:38.328Z,2655.00
2023-05-19T12:24:38.357Z,2671.88
2023-05-19T12:25:38.537Z,2750.62
2023-05-19T12:26:38.329Z,2671.88
2023-05-19T12:27:38.294Z,2733.75
2023-05-19T12:28:38.305Z,1597.50
2023-05-19T12:29:38.281Z,2812.50
2023-05-19T12:30:38.476Z,2767.50
2023-05-19T12:31:38.369Z,2739.38
2023-05-19T12:32:38.336Z,2761.88
2023-05-19T12:33:38.247Z,2823.75
2023-05-19T12:34:38.289Z,2913.75
2023-05-19T12:35:38.218Z,1535.62
2023-05-19T12:36:38.212Z,871.88
2023-05-19T12:37:38.199Z,877.50
2023-05-19T12:38:38.202Z,2739.38
2023-05-19T12:39:38.170Z,911.25
2023-05-19T12:40:39.173Z,843.75
2023-05-19T12:41:38.158Z,838.12
2023-05-19T12:42:38.162Z,888.75
2023-05-19T12:43:38.149Z,2829.38
2023-05-19T12:44:38.124Z,2711.25
2023-05-19T12:45:38.173Z,2092.50
2023-05-19T12:46:38.094Z,2846.25
2023-05-19T12:47:38.094Z,2795.62
2023-05-19T12:48:38.104Z,2745.00
2023-05-19T12:49:38.071Z,2823.75
2023-05-19T12:50:38.269Z,2913.75
2023-05-19T12:51:38.060Z,2829.38
2023-05-19T12:52:38.053Z,2851.88
2023-05-19T12:53:38.025Z,2896.88
2023-05-19T12:54:38.070Z,2857.50
2023-05-19T12:55:38.015Z,2975.62
2023-05-19T12:56:38.011Z,3031.88
2023-05-19T12:57:37.990Z,3031.88
2023-05-19T12:58:37.972Z,1625.62
2023-05-19T12:59:39.001Z,2964.38
2023-05-19T13:00:38.066Z,2925.00
2023-05-19T13:01:37.939Z,2919.38
2023-05-19T13:02:38.066Z,2975.62
2023-05-19T13:03:37.977Z,3009.38
2023-05-19T13:04:37.919Z,2970.00
2023-05-19T13:05:37.976Z,1845.00
2023-05-19T13:06:37.892Z,973.12
2023-05-19T13:07:37.901Z,933.75
2023-05-19T13:08:37.867Z,1406.25
2023-05-19T13:09:37.858Z,1012.50
2023-05-19T13:10:37.911Z,855.00
2023-05-19T13:11:38.131Z,787.50
2023-05-19T13:12:37.854Z,2868.75
2023-05-19T13:13:37.815Z,2835.00
2023-05-19T13:14:37.805Z,2908.12
2023-05-19T13:15:37.831Z,2970.00
2023-05-19T13:16:37.869Z,1496.25
2023-05-19T13:17:37.801Z,849.38
2023-05-19T13:18:38.012Z,815.62
2023-05-19T13:19:37.907Z,3037.50
2023-05-19T13:20:37.767Z,3127.50
2023-05-19T13:21:37.734Z,3161.25
2023-05-19T13:22:37.741Z,1001.25
2023-05-19T13:23:37.716Z,2840.62
2023-05-19T13:24:37.701Z,866.25
2023-05-19T13:25:37.701Z,939.38
2023-05-19T13:26:37.695Z,3093.75
2023-05-19T13:27:37.652Z,2998.12
2023-05-19T13:28:37.656Z,3071.25
2023-05-19T13:29:37.670Z,2328.75
2023-05-19T13:30:37.918Z,3099.38
2023-05-19T13:31:37.674Z,961.88
2023-05-19T13:32:37.666Z,984.38
2023-05-19T13:33:37.595Z,967.50
2023-05-19T13:34:37.585Z,956.25
2023-05-19T13:35:38.115Z,978.75
2023-05-19T13:36:37.597Z,2986.88
2023-05-19T13:37:37.566Z,1575.00
2023-05-19T13:38:37.567Z,973.12